sensor_id;sensor_type;location;lat;lon;timestamp;P1;durP1;ratioP1;P2;durP2;ratioP2
35990;SDS011;22064;42.672;23.282;2023-07-20T00:01:24;11.80;;;3.15;;
35990;SDS011;22064;42.672;23.282;2023-07-20T00:03:50;11.18;;;2.75;;
35990;SDS011;22064;42.672;23.282;2023-07-20T00:06:23;12.45;;;3.33;;
35990;SDS011;22064;42.672;23.282;2023-07-20T00:08:50;8.95;;;2.90;;
35990;SDS011;22064;42.672;23.282;2023-07-20T00:11:17;10.48;;;3.10;;
35990;SDS011;22064;42.672;23.282;2023-07-20T00:13:43;12.95;;;4.88;;
35990;SDS011;22064;42.672;23.282;2023-07-20T00:16:09;11.68;;;3.35;;
35990;SDS011;22064;42.672;23.282;2023-07-20T00:18:35;7.18;;;3.35;;
35990;SDS011;22064;42.672;23.282;2023-07-20T00:21:01;10.48;;;3.10;;
35990;SDS011;22064;42.672;23.282;2023-07-20T00:23:27;12.48;;;3.35;;
35990;SDS011;22064;42.672;23.282;2023-07-20T00:25:53;12.45;;;3.38;;
35990;SDS011;22064;42.672;23.282;2023-07-20T00:28:20;10.85;;;3.22;;
35990;SDS011;22064;42.672;23.282;2023-07-20T00:30:48;9.77;;;3.38;;
35990;SDS011;22064;42.672;23.282;2023-07-20T00:33:17;15.23;;;3.70;;
35990;SDS011;22064;42.672;23.282;2023-07-20T00:35:43;10.52;;;3.20;;
35990;SDS011;22064;42.672;23.282;2023-07-20T00:38:09;7.88;;;3.22;;
35990;SDS011;22064;42.672;23.282;2023-07-20T00:40:36;11.15;;;3.20;;
35990;SDS011;22064;42.672;23.282;2023-07-20T00:43:02;10.88;;;3.45;;
35990;SDS011;22064;42.672;23.282;2023-07-20T00:45:29;12.05;;;4.00;;
35990;SDS011;22064;42.672;23.282;2023-07-20T00:47:56;12.68;;;3.80;;
35990;SDS011;22064;42.672;23.282;2023-07-20T00:50:23;9.00;;;3.17;;
35990;SDS011;22064;42.672;23.282;2023-07-20T00:52:50;11.52;;;4.60;;
35990;SDS011;22064;42.672;23.282;2023-07-20T00:55:18;6.97;;;3.40;;
35990;SDS011;22064;42.672;23.282;2023-07-20T00:57:45;11.77;;;3.47;;
35990;SDS011;22064;42.672;23.282;2023-07-20T01:00:12;10.60;;;3.38;;
35990;SDS011;22064;42.672;23.282;2023-07-20T01:02:38;9.57;;;3.63;;
35990;SDS011;22064;42.672;23.282;2023-07-20T01:05:05;11.38;;;3.05;;
35990;SDS011;22064;42.672;23.282;2023-07-20T01:07:42;11.57;;;3.70;;
35990;SDS011;22064;42.672;23.282;2023-07-20T01:10:25;10.80;;;4.05;;
35990;SDS011;22064;42.672;23.282;2023-07-20T01:12:59;10.43;;;4.13;;
35990;SDS011;22064;42.672;23.282;2023-07-20T01:15:27;10.45;;;3.53;;
35990;SDS011;22064;42.672;23.282;2023-07-20T01:17:53;9.90;;;3.78;;
35990;SDS011;22064;42.672;23.282;2023-07-20T01:20:20;14.80;;;3.85;;
35990;SDS011;22064;42.672;23.282;2023-07-20T01:22:55;13.40;;;3.97;;
35990;SDS011;22064;42.672;23.282;2023-07-20T01:30:59;11.95;;;3.53;;
35990;SDS011;22064;42.672;23.282;2023-07-20T01:33:40;12.30;;;4.05;;
35990;SDS011;22064;42.672;23.282;2023-07-20T01:36:08;6.93;;;3.45;;
35990;SDS011;22064;42.672;23.282;2023-07-20T01:38:35;9.48;;;3.58;;
35990;SDS011;22064;42.672;23.282;2023-07-20T01:41:02;9.90;;;3.53;;
35990;SDS011;22064;42.672;23.282;2023-07-20T01:43:29;12.30;;;3.70;;
35990;SDS011;22064;42.672;23.282;2023-07-20T01:45:55;11.55;;;4.07;;
35990;SDS011;22064;42.672;23.282;2023-07-20T01:48:21;9.35;;;3.67;;
35990;SDS011;22064;42.672;23.282;2023-07-20T01:50:47;11.93;;;4.00;;
35990;SDS011;22064;42.672;23.282;2023-07-20T01:53:14;11.32;;;3.67;;
35990;SDS011;22064;42.672;23.282;2023-07-20T01:55:40;10.88;;;3.35;;
35990;SDS011;22064;42.672;23.282;2023-07-20T01:58:06;9.18;;;3.55;;
35990;SDS011;22064;42.672;23.282;2023-07-20T02:00:33;12.98;;;4.05;;
35990;SDS011;22064;42.672;23.282;2023-07-20T02:02:59;14.73;;;4.43;;
35990;SDS011;22064;42.672;23.282;2023-07-20T02:05:25;10.80;;;4.03;;
35990;SDS011;22064;42.672;23.282;2023-07-20T02:07:51;14.45;;;4.20;;
35990;SDS011;22064;42.672;23.282;2023-07-20T02:10:19;11.45;;;4.20;;
35990;SDS011;22064;42.672;23.282;2023-07-20T02:12:45;13.02;;;4.15;;
35990;SDS011;22064;42.672;23.282;2023-07-20T02:15:11;11.73;;;3.90;;
35990;SDS011;22064;42.672;23.282;2023-07-20T02:17:39;14.05;;;4.55;;
35990;SDS011;22064;42.672;23.282;2023-07-20T02:20:07;10.15;;;4.13;;
35990;SDS011;22064;42.672;23.282;2023-07-20T02:22:37;10.23;;;4.55;;
35990;SDS011;22064;42.672;23.282;2023-07-20T02:25:04;13.82;;;4.72;;
35990;SDS011;22064;42.672;23.282;2023-07-20T02:27:31;10.80;;;3.67;;
35990;SDS011;22064;42.672;23.282;2023-07-20T02:29:57;9.38;;;4.38;;
35990;SDS011;22064;42.672;23.282;2023-07-20T02:32:23;8.88;;;3.13;;
35990;SDS011;22064;42.672;23.282;2023-07-20T02:34:49;11.75;;;3.50;;
35990;SDS011;22064;42.672;23.282;2023-07-20T02:37:15;11.98;;;3.70;;
35990;SDS011;22064;42.672;23.282;2023-07-20T02:39:42;14.45;;;4.10;;
35990;SDS011;22064;42.672;23.282;2023-07-20T02:42:08;14.48;;;3.92;;
35990;SDS011;22064;42.672;23.282;2023-07-20T02:44:34;12.55;;;3.88;;
35990;SDS011;22064;42.672;23.282;2023-07-20T02:47:00;9.95;;;3.60;;
35990;SDS011;22064;42.672;23.282;2023-07-20T02:49:27;12.77;;;3.97;;
35990;SDS011;22064;42.672;23.282;2023-07-20T02:51:54;9.40;;;3.55;;
35990;SDS011;22064;42.672;23.282;2023-07-20T02:54:20;10.75;;;3.88;;
35990;SDS011;22064;42.672;23.282;2023-07-20T02:56:46;12.20;;;3.50;;
35990;SDS011;22064;42.672;23.282;2023-07-20T02:59:12;14.23;;;3.55;;
35990;SDS011;22064;42.672;23.282;2023-07-20T03:01:38;10.85;;;3.30;;
35990;SDS011;22064;42.672;23.282;2023-07-20T03:04:04;8.43;;;3.38;;
35990;SDS011;22064;42.672;23.282;2023-07-20T03:06:30;11.07;;;3.22;;
35990;SDS011;22064;42.672;23.282;2023-07-20T03:08:57;10.95;;;3.58;;
35990;SDS011;22064;42.672;23.282;2023-07-20T03:11:23;12.07;;;3.45;;
35990;SDS011;22064;42.672;23.282;2023-07-20T03:13:49;10.73;;;3.80;;
35990;SDS011;22064;42.672;23.282;2023-07-20T03:16:17;15.65;;;4.18;;
35990;SDS011;22064;42.672;23.282;2023-07-20T03:18:45;12.73;;;3.78;;
35990;SDS011;22064;42.672;23.282;2023-07-20T03:21:11;8.98;;;4.28;;
35990;SDS011;22064;42.672;23.282;2023-07-20T03:23:38;12.05;;;4.68;;
35990;SDS011;22064;42.672;23.282;2023-07-20T03:26:05;19.60;;;4.95;;
35990;SDS011;22064;42.672;23.282;2023-07-20T03:28:31;15.13;;;5.13;;
35990;SDS011;22064;42.672;23.282;2023-07-20T03:30:57;12.85;;;4.00;;
35990;SDS011;22064;42.672;23.282;2023-07-20T03:33:25;17.15;;;4.72;;
35990;SDS011;22064;42.672;23.282;2023-07-20T03:35:52;16.05;;;5.70;;
35990;SDS011;22064;42.672;23.282;2023-07-20T03:38:18;15.57;;;4.35;;
35990;SDS011;22064;42.672;23.282;2023-07-20T03:40:51;11.35;;;4.90;;
35990;SDS011;22064;42.672;23.282;2023-07-20T03:43:17;12.90;;;4.60;;
35990;SDS011;22064;42.672;23.282;2023-07-20T03:45:44;15.40;;;4.40;;
35990;SDS011;22064;42.672;23.282;2023-07-20T03:48:15;12.13;;;4.75;;
35990;SDS011;22064;42.672;23.282;2023-07-20T03:50:46;14.90;;;3.88;;
35990;SDS011;22064;42.672;23.282;2023-07-20T03:53:13;13.13;;;4.65;;
35990;SDS011;22064;42.672;23.282;2023-07-20T03:55:46;10.27;;;4.22;;
35990;SDS011;22064;42.672;23.282;2023-07-20T03:58:13;14.95;;;4.05;;
35990;SDS011;22064;42.672;23.282;2023-07-20T04:00:39;10.90;;;4.45;;
35990;SDS011;22064;42.672;23.282;2023-07-20T04:03:08;12.40;;;4.23;;
35990;SDS011;22064;42.672;23.282;2023-07-20T04:05:34;13.85;;;4.40;;
35990;SDS011;22064;42.672;23.282;2023-07-20T04:08:00;13.68;;;4.00;;
35990;SDS011;22064;42.672;23.282;2023-07-20T04:10:26;11.57;;;4.00;;
35990;SDS011;22064;42.672;23.282;2023-07-20T04:12:52;12.55;;;4.00;;
35990;SDS011;22064;42.672;23.282;2023-07-20T04:15:18;10.65;;;3.92;;
35990;SDS011;22064;42.672;23.282;2023-07-20T04:17:44;14.57;;;3.95;;
35990;SDS011;22064;42.672;23.282;2023-07-20T04:20:11;15.07;;;4.03;;
35990;SDS011;22064;42.672;23.282;2023-07-20T04:22:37;14.35;;;4.38;;
35990;SDS011;22064;42.672;23.282;2023-07-20T04:25:04;11.60;;;4.07;;
35990;SDS011;22064;42.672;23.282;2023-07-20T04:27:31;11.73;;;3.67;;
35990;SDS011;22064;42.672;23.282;2023-07-20T04:30:00;12.15;;;4.45;;
35990;SDS011;22064;42.672;23.282;2023-07-20T04:32:26;12.77;;;4.13;;
35990;SDS011;22064;42.672;23.282;2023-07-20T04:34:52;11.35;;;4.15;;
35990;SDS011;22064;42.672;23.282;2023-07-20T04:37:19;11.25;;;4.38;;
35990;SDS011;22064;42.672;23.282;2023-07-20T04:39:46;10.55;;;4.47;;
35990;SDS011;22064;42.672;23.282;2023-07-20T04:42:12;14.10;;;4.85;;
35990;SDS011;22064;42.672;23.282;2023-07-20T04:44:39;15.48;;;4.57;;
35990;SDS011;22064;42.672;23.282;2023-07-20T04:47:06;13.75;;;4.25;;
35990;SDS011;22064;42.672;23.282;2023-07-20T04:49:36;15.95;;;3.90;;
35990;SDS011;22064;42.672;23.282;2023-07-20T04:52:02;13.20;;;4.07;;
35990;SDS011;22064;42.672;23.282;2023-07-20T04:54:28;11.75;;;4.38;;
35990;SDS011;22064;42.672;23.282;2023-07-20T04:56:54;12.02;;;4.57;;
35990;SDS011;22064;42.672;23.282;2023-07-20T04:59:21;14.25;;;4.85;;
35990;SDS011;22064;42.672;23.282;2023-07-20T05:01:47;13.82;;;3.85;;
35990;SDS011;22064;42.672;23.282;2023-07-20T05:04:14;14.73;;;4.32;;
35990;SDS011;22064;42.672;23.282;2023-07-20T05:06:40;17.33;;;5.30;;
35990;SDS011;22064;42.672;23.282;2023-07-20T05:09:07;12.52;;;4.18;;
35990;SDS011;22064;42.672;23.282;2023-07-20T05:11:34;11.32;;;4.32;;
35990;SDS011;22064;42.672;23.282;2023-07-20T05:14:00;12.07;;;5.13;;
35990;SDS011;22064;42.672;23.282;2023-07-20T05:16:29;11.23;;;4.30;;
35990;SDS011;22064;42.672;23.282;2023-07-20T05:19:00;20.52;;;4.68;;
35990;SDS011;22064;42.672;23.282;2023-07-20T05:21:26;14.85;;;4.30;;
35990;SDS011;22064;42.672;23.282;2023-07-20T05:23:52;13.23;;;4.30;;
35990;SDS011;22064;42.672;23.282;2023-07-20T05:26:18;17.70;;;4.22;;
35990;SDS011;22064;42.672;23.282;2023-07-20T05:28:44;9.10;;;4.30;;
35990;SDS011;22064;42.672;23.282;2023-07-20T05:31:10;12.25;;;4.75;;
35990;SDS011;22064;42.672;23.282;2023-07-20T05:33:35;14.77;;;5.28;;
35990;SDS011;22064;42.672;23.282;2023-07-20T05:36:01;14.93;;;4.90;;
35990;SDS011;22064;42.672;23.282;2023-07-20T05:38:28;12.98;;;4.00;;
35990;SDS011;22064;42.672;23.282;2023-07-20T05:40:58;13.10;;;4.05;;
35990;SDS011;22064;42.672;23.282;2023-07-20T05:43:26;13.35;;;4.20;;
35990;SDS011;22064;42.672;23.282;2023-07-20T05:45:52;10.75;;;3.30;;
35990;SDS011;22064;42.672;23.282;2023-07-20T05:48:19;11.88;;;3.63;;
35990;SDS011;22064;42.672;23.282;2023-07-20T05:50:44;15.25;;;4.25;;
35990;SDS011;22064;42.672;23.282;2023-07-20T05:53:10;8.60;;;3.38;;
35990;SDS011;22064;42.672;23.282;2023-07-20T05:55:36;12.55;;;4.30;;
35990;SDS011;22064;42.672;23.282;2023-07-20T05:58:02;11.68;;;4.20;;
35990;SDS011;22064;42.672;23.282;2023-07-20T06:00:29;12.50;;;3.50;;
35990;SDS011;22064;42.672;23.282;2023-07-20T06:02:55;9.48;;;3.53;;
35990;SDS011;22064;42.672;23.282;2023-07-20T06:05:22;12.88;;;3.30;;
35990;SDS011;22064;42.672;23.282;2023-07-20T06:07:49;13.18;;;3.92;;
35990;SDS011;22064;42.672;23.282;2023-07-20T06:10:15;9.50;;;3.75;;
35990;SDS011;22064;42.672;23.282;2023-07-20T06:12:42;17.55;;;5.18;;
35990;SDS011;22064;42.672;23.282;2023-07-20T06:15:23;11.18;;;3.70;;
35990;SDS011;22064;42.672;23.282;2023-07-20T06:17:51;13.68;;;4.38;;
35990;SDS011;22064;42.672;23.282;2023-07-20T06:20:17;14.65;;;3.90;;
35990;SDS011;22064;42.672;23.282;2023-07-20T06:22:44;15.02;;;4.20;;
35990;SDS011;22064;42.672;23.282;2023-07-20T06:25:10;12.57;;;5.13;;
35990;SDS011;22064;42.672;23.282;2023-07-20T06:27:36;11.02;;;3.92;;
35990;SDS011;22064;42.672;23.282;2023-07-20T06:30:02;15.43;;;4.60;;
35990;SDS011;22064;42.672;23.282;2023-07-20T06:32:29;10.77;;;4.30;;
35990;SDS011;22064;42.672;23.282;2023-07-20T06:34:54;11.70;;;4.47;;
35990;SDS011;22064;42.672;23.282;2023-07-20T06:37:20;14.55;;;4.88;;
35990;SDS011;22064;42.672;23.282;2023-07-20T06:39:46;13.18;;;4.43;;
35990;SDS011;22064;42.672;23.282;2023-07-20T06:42:12;13.57;;;4.32;;
35990;SDS011;22064;42.672;23.282;2023-07-20T06:44:39;10.95;;;4.15;;
35990;SDS011;22064;42.672;23.282;2023-07-20T06:47:05;15.55;;;4.75;;
35990;SDS011;22064;42.672;23.282;2023-07-20T06:49:31;11.38;;;4.07;;
35990;SDS011;22064;42.672;23.282;2023-07-20T06:51:57;14.07;;;4.45;;
35990;SDS011;22064;42.672;23.282;2023-07-20T06:54:23;14.20;;;4.50;;
35990;SDS011;22064;42.672;23.282;2023-07-20T06:56:49;17.83;;;5.28;;
35990;SDS011;22064;42.672;23.282;2023-07-20T06:59:15;13.88;;;5.13;;
35990;SDS011;22064;42.672;23.282;2023-07-20T07:01:41;15.85;;;4.80;;
35990;SDS011;22064;42.672;23.282;2023-07-20T07:04:07;15.80;;;4.32;;
35990;SDS011;22064;42.672;23.282;2023-07-20T07:06:33;15.23;;;4.47;;
35990;SDS011;22064;42.672;23.282;2023-07-20T07:09:00;12.77;;;4.03;;
35990;SDS011;22064;42.672;23.282;2023-07-20T07:11:26;14.80;;;4.63;;
35990;SDS011;22064;42.672;23.282;2023-07-20T07:13:52;12.75;;;4.07;;
35990;SDS011;22064;42.672;23.282;2023-07-20T07:16:18;12.70;;;4.50;;
35990;SDS011;22064;42.672;23.282;2023-07-20T07:18:45;13.85;;;4.45;;
35990;SDS011;22064;42.672;23.282;2023-07-20T07:21:11;16.80;;;4.45;;
35990;SDS011;22064;42.672;23.282;2023-07-20T07:23:38;11.35;;;4.50;;
35990;SDS011;22064;42.672;23.282;2023-07-20T07:26:04;11.57;;;4.35;;
35990;SDS011;22064;42.672;23.282;2023-07-20T07:28:30;15.93;;;4.90;;
35990;SDS011;22064;42.672;23.282;2023-07-20T07:30:57;12.63;;;4.40;;
35990;SDS011;22064;42.672;23.282;2023-07-20T07:33:23;13.48;;;4.07;;
35990;SDS011;22064;42.672;23.282;2023-07-20T07:35:50;13.95;;;4.93;;
35990;SDS011;22064;42.672;23.282;2023-07-20T07:38:18;13.82;;;4.95;;
35990;SDS011;22064;42.672;23.282;2023-07-20T07:40:44;11.77;;;4.50;;
35990;SDS011;22064;42.672;23.282;2023-07-20T07:43:10;14.00;;;5.03;;
35990;SDS011;22064;42.672;23.282;2023-07-20T07:45:37;15.75;;;4.65;;
35990;SDS011;22064;42.672;23.282;2023-07-20T07:48:03;13.75;;;4.93;;
35990;SDS011;22064;42.672;23.282;2023-07-20T07:50:30;15.10;;;5.03;;
35990;SDS011;22064;42.672;23.282;2023-07-20T07:52:57;15.13;;;4.53;;
35990;SDS011;22064;42.672;23.282;2023-07-20T07:55:23;15.35;;;5.72;;
35990;SDS011;22064;42.672;23.282;2023-07-20T07:57:52;15.02;;;5.03;;
35990;SDS011;22064;42.672;23.282;2023-07-20T08:00:18;8.35;;;4.35;;
35990;SDS011;22064;42.672;23.282;2023-07-20T08:02:44;10.10;;;4.85;;
35990;SDS011;22064;42.672;23.282;2023-07-20T08:05:13;15.45;;;5.50;;
35990;SDS011;22064;42.672;23.282;2023-07-20T08:07:40;17.23;;;5.90;;
35990;SDS011;22064;42.672;23.282;2023-07-20T08:10:06;12.85;;;4.40;;
35990;SDS011;22064;42.672;23.282;2023-07-20T08:12:32;13.57;;;4.70;;
35990;SDS011;22064;42.672;23.282;2023-07-20T08:14:59;16.63;;;4.78;;
35990;SDS011;22064;42.672;23.282;2023-07-20T08:17:25;12.55;;;4.72;;
35990;SDS011;22064;42.672;23.282;2023-07-20T08:19:51;11.85;;;3.92;;
35990;SDS011;22064;42.672;23.282;2023-07-20T08:22:17;8.48;;;3.28;;
35990;SDS011;22064;42.672;23.282;2023-07-20T08:24:43;8.70;;;3.70;;
35990;SDS011;22064;42.672;23.282;2023-07-20T08:27:10;10.35;;;3.60;;
35990;SDS011;22064;42.672;23.282;2023-07-20T08:29:36;10.02;;;3.50;;
35990;SDS011;22064;42.672;23.282;2023-07-20T08:32:03;8.35;;;3.30;;
35990;SDS011;22064;42.672;23.282;2023-07-20T08:34:30;12.63;;;3.88;;
35990;SDS011;22064;42.672;23.282;2023-07-20T08:36:57;11.20;;;2.95;;
35990;SDS011;22064;42.672;23.282;2023-07-20T08:39:24;9.75;;;2.80;;
35990;SDS011;22064;42.672;23.282;2023-07-20T08:41:50;9.43;;;3.17;;
35990;SDS011;22064;42.672;23.282;2023-07-20T08:44:17;10.35;;;3.10;;
35990;SDS011;22064;42.672;23.282;2023-07-20T08:46:43;9.98;;;3.00;;
35990;SDS011;22064;42.672;23.282;2023-07-20T08:49:11;12.13;;;3.40;;
35990;SDS011;22064;42.672;23.282;2023-07-20T08:51:37;9.10;;;2.90;;
35990;SDS011;22064;42.672;23.282;2023-07-20T08:54:04;10.30;;;3.00;;
35990;SDS011;22064;42.672;23.282;2023-07-20T08:56:31;9.50;;;3.05;;
35990;SDS011;22064;42.672;23.282;2023-07-20T08:58:59;13.10;;;3.42;;
35990;SDS011;22064;42.672;23.282;2023-07-20T09:01:26;10.68;;;3.25;;
35990;SDS011;22064;42.672;23.282;2023-07-20T09:03:54;10.15;;;3.28;;
35990;SDS011;22064;42.672;23.282;2023-07-20T09:06:20;8.82;;;3.10;;
35990;SDS011;22064;42.672;23.282;2023-07-20T09:08:45;9.75;;;3.20;;
35990;SDS011;22064;42.672;23.282;2023-07-20T09:11:12;9.05;;;3.53;;
35990;SDS011;22064;42.672;23.282;2023-07-20T09:13:39;10.85;;;3.65;;
35990;SDS011;22064;42.672;23.282;2023-07-20T09:16:05;9.98;;;3.20;;
35990;SDS011;22064;42.672;23.282;2023-07-20T09:18:31;8.63;;;2.70;;
35990;SDS011;22064;42.672;23.282;2023-07-20T09:21:01;8.77;;;3.03;;
35990;SDS011;22064;42.672;23.282;2023-07-20T09:23:35;9.38;;;3.35;;
35990;SDS011;22064;42.672;23.282;2023-07-20T09:26:14;11.10;;;3.47;;
35990;SDS011;22064;42.672;23.282;2023-07-20T09:28:42;11.38;;;3.15;;
35990;SDS011;22064;42.672;23.282;2023-07-20T09:31:19;12.23;;;4.28;;
35990;SDS011;22064;42.672;23.282;2023-07-20T09:33:47;9.38;;;3.35;;
35990;SDS011;22064;42.672;23.282;2023-07-20T09:36:14;8.25;;;2.92;;
35990;SDS011;22064;42.672;23.282;2023-07-20T09:38:43;11.32;;;3.30;;
35990;SDS011;22064;42.672;23.282;2023-07-20T09:41:15;10.77;;;3.30;;
35990;SDS011;22064;42.672;23.282;2023-07-20T09:43:43;10.50;;;3.28;;
35990;SDS011;22064;42.672;23.282;2023-07-20T09:46:09;10.88;;;3.45;;
35990;SDS011;22064;42.672;23.282;2023-07-20T09:48:35;8.70;;;2.90;;
35990;SDS011;22064;42.672;23.282;2023-07-20T09:51:01;10.07;;;3.05;;
35990;SDS011;22064;42.672;23.282;2023-07-20T09:53:27;9.82;;;2.67;;
35990;SDS011;22064;42.672;23.282;2023-07-20T09:55:54;8.05;;;2.92;;
35990;SDS011;22064;42.672;23.282;2023-07-20T09:58:21;9.40;;;4.03;;
35990;SDS011;22064;42.672;23.282;2023-07-20T10:00:48;6.97;;;2.30;;
35990;SDS011;22064;42.672;23.282;2023-07-20T10:03:18;6.00;;;2.70;;
35990;SDS011;22064;42.672;23.282;2023-07-20T10:05:48;11.77;;;3.13;;
35990;SDS011;22064;42.672;23.282;2023-07-20T10:08:38;6.45;;;2.65;;
35990;SDS011;22064;42.672;23.282;2023-07-20T10:11:07;7.68;;;2.70;;
35990;SDS011;22064;42.672;23.282;2023-07-20T10:13:38;6.05;;;2.20;;
35990;SDS011;22064;42.672;23.282;2023-07-20T10:16:10;8.30;;;2.83;;
35990;SDS011;22064;42.672;23.282;2023-07-20T10:18:46;5.50;;;3.25;;
35990;SDS011;22064;42.672;23.282;2023-07-20T10:21:17;9.07;;;2.85;;
35990;SDS011;22064;42.672;23.282;2023-07-20T10:23:45;8.95;;;2.60;;
35990;SDS011;22064;42.672;23.282;2023-07-20T10:26:12;8.45;;;2.90;;
35990;SDS011;22064;42.672;23.282;2023-07-20T10:28:39;8.10;;;2.72;;
35990;SDS011;22064;42.672;23.282;2023-07-20T10:31:09;5.20;;;2.38;;
35990;SDS011;22064;42.672;23.282;2023-07-20T10:33:38;7.13;;;2.53;;
35990;SDS011;22064;42.672;23.282;2023-07-20T10:36:05;5.75;;;2.50;;
35990;SDS011;22064;42.672;23.282;2023-07-20T10:43:44;10.35;;;2.78;;
35990;SDS011;22064;42.672;23.282;2023-07-20T10:46:11;9.82;;;2.47;;
35990;SDS011;22064;42.672;23.282;2023-07-20T10:51:27;9.43;;;3.00;;
35990;SDS011;22064;42.672;23.282;2023-07-20T10:53:57;7.70;;;2.80;;
35990;SDS011;22064;42.672;23.282;2023-07-20T10:56:27;8.20;;;3.22;;
35990;SDS011;22064;42.672;23.282;2023-07-20T10:58:55;9.90;;;3.10;;
35990;SDS011;22064;42.672;23.282;2023-07-20T11:01:27;11.52;;;3.05;;
35990;SDS011;22064;42.672;23.282;2023-07-20T11:03:57;7.07;;;2.90;;
35990;SDS011;22064;42.672;23.282;2023-07-20T11:11:23;11.55;;;3.15;;
35990;SDS011;22064;42.672;23.282;2023-07-20T11:14:02;12.27;;;2.88;;
35990;SDS011;22064;42.672;23.282;2023-07-20T11:16:33;12.80;;;3.30;;
35990;SDS011;22064;42.672;23.282;2023-07-20T11:19:13;9.32;;;2.90;;
35990;SDS011;22064;42.672;23.282;2023-07-20T11:21:41;8.80;;;3.58;;
35990;SDS011;22064;42.672;23.282;2023-07-20T11:24:09;7.03;;;3.13;;
35990;SDS011;22064;42.672;23.282;2023-07-20T11:26:47;8.05;;;3.08;;
35990;SDS011;22064;42.672;23.282;2023-07-20T11:29:19;9.75;;;3.70;;
35990;SDS011;22064;42.672;23.282;2023-07-20T11:31:47;12.23;;;4.32;;
35990;SDS011;22064;42.672;23.282;2023-07-20T11:34:14;10.40;;;3.85;;
35990;SDS011;22064;42.672;23.282;2023-07-20T11:36:41;12.30;;;3.80;;
35990;SDS011;22064;42.672;23.282;2023-07-20T11:39:08;8.20;;;3.83;;
35990;SDS011;22064;42.672;23.282;2023-07-20T11:41:35;9.20;;;3.63;;
35990;SDS011;22064;42.672;23.282;2023-07-20T11:44:01;8.23;;;3.85;;
35990;SDS011;22064;42.672;23.282;2023-07-20T11:46:28;8.07;;;3.90;;
35990;SDS011;22064;42.672;23.282;2023-07-20T11:48:56;11.23;;;4.10;;
35990;SDS011;22064;42.672;23.282;2023-07-20T11:51:23;11.68;;;4.32;;
35990;SDS011;22064;42.672;23.282;2023-07-20T11:53:50;8.75;;;4.13;;
35990;SDS011;22064;42.672;23.282;2023-07-20T11:56:16;11.15;;;4.32;;
35990;SDS011;22064;42.672;23.282;2023-07-20T11:58:43;10.88;;;4.20;;
35990;SDS011;22064;42.672;23.282;2023-07-20T12:01:11;9.38;;;4.05;;
35990;SDS011;22064;42.672;23.282;2023-07-20T12:03:38;7.68;;;3.83;;
35990;SDS011;22064;42.672;23.282;2023-07-20T12:06:07;10.90;;;3.88;;
35990;SDS011;22064;42.672;23.282;2023-07-20T12:08:34;9.73;;;3.85;;
35990;SDS011;22064;42.672;23.282;2023-07-20T12:11:00;11.15;;;4.10;;
35990;SDS011;22064;42.672;23.282;2023-07-20T12:13:40;7.82;;;3.65;;
35990;SDS011;22064;42.672;23.282;2023-07-20T12:16:14;8.98;;;3.67;;
35990;SDS011;22064;42.672;23.282;2023-07-20T12:18:42;14.05;;;3.80;;
35990;SDS011;22064;42.672;23.282;2023-07-20T12:21:09;7.95;;;3.42;;
35990;SDS011;22064;42.672;23.282;2023-07-20T12:23:36;10.95;;;3.58;;
35990;SDS011;22064;42.672;23.282;2023-07-20T12:26:05;9.77;;;3.40;;
35990;SDS011;22064;42.672;23.282;2023-07-20T12:28:33;7.28;;;3.28;;
35990;SDS011;22064;42.672;23.282;2023-07-20T12:31:01;9.25;;;4.03;;
35990;SDS011;22064;42.672;23.282;2023-07-20T12:33:27;7.63;;;3.42;;
35990;SDS011;22064;42.672;23.282;2023-07-20T12:35:53;9.95;;;3.53;;
35990;SDS011;22064;42.672;23.282;2023-07-20T12:38:21;12.00;;;2.97;;
35990;SDS011;22064;42.672;23.282;2023-07-20T12:40:48;12.35;;;3.90;;
35990;SDS011;22064;42.672;23.282;2023-07-20T12:43:14;10.77;;;3.50;;
35990;SDS011;22064;42.672;23.282;2023-07-20T12:45:40;9.75;;;3.17;;
35990;SDS011;22064;42.672;23.282;2023-07-20T12:48:06;12.02;;;3.50;;
35990;SDS011;22064;42.672;23.282;2023-07-20T12:50:32;11.48;;;3.28;;
35990;SDS011;22064;42.672;23.282;2023-07-20T12:52:58;9.98;;;3.63;;
35990;SDS011;22064;42.672;23.282;2023-07-20T12:55:24;8.82;;;3.33;;
35990;SDS011;22064;42.672;23.282;2023-07-20T12:57:50;8.25;;;2.92;;
35990;SDS011;22064;42.672;23.282;2023-07-20T13:00:16;9.90;;;3.63;;
35990;SDS011;22064;42.672;23.282;2023-07-20T13:02:42;11.00;;;3.33;;
35990;SDS011;22064;42.672;23.282;2023-07-20T13:05:09;8.10;;;3.38;;
35990;SDS011;22064;42.672;23.282;2023-07-20T13:07:37;11.88;;;3.50;;
35990;SDS011;22064;42.672;23.282;2023-07-20T13:10:04;11.68;;;3.70;;
35990;SDS011;22064;42.672;23.282;2023-07-20T13:12:32;9.88;;;3.60;;
35990;SDS011;22064;42.672;23.282;2023-07-20T13:15:02;10.02;;;3.67;;
35990;SDS011;22064;42.672;23.282;2023-07-20T13:17:31;11.25;;;3.75;;
35990;SDS011;22064;42.672;23.282;2023-07-20T13:19:58;8.15;;;3.00;;
35990;SDS011;22064;42.672;23.282;2023-07-20T13:22:24;7.47;;;3.33;;
35990;SDS011;22064;42.672;23.282;2023-07-20T13:24:50;11.05;;;3.70;;
35990;SDS011;22064;42.672;23.282;2023-07-20T13:27:17;10.55;;;3.05;;
35990;SDS011;22064;42.672;23.282;2023-07-20T13:29:43;10.50;;;3.08;;
35990;SDS011;22064;42.672;23.282;2023-07-20T13:32:13;11.07;;;3.42;;
35990;SDS011;22064;42.672;23.282;2023-07-20T13:34:40;9.43;;;3.60;;
35990;SDS011;22064;42.672;23.282;2023-07-20T13:37:08;6.28;;;2.97;;
35990;SDS011;22064;42.672;23.282;2023-07-20T13:39:34;9.93;;;2.70;;
35990;SDS011;22064;42.672;23.282;2023-07-20T13:42:00;8.25;;;3.28;;
35990;SDS011;22064;42.672;23.282;2023-07-20T13:46:55;11.35;;;3.38;;
35990;SDS011;22064;42.672;23.282;2023-07-20T13:49:21;8.48;;;3.35;;
35990;SDS011;22064;42.672;23.282;2023-07-20T13:51:46;10.73;;;3.20;;
35990;SDS011;22064;42.672;23.282;2023-07-20T13:54:12;9.95;;;3.20;;
35990;SDS011;22064;42.672;23.282;2023-07-20T13:56:38;11.02;;;3.83;;
35990;SDS011;22064;42.672;23.282;2023-07-20T13:59:04;9.90;;;3.53;;
35990;SDS011;22064;42.672;23.282;2023-07-20T14:01:30;8.77;;;3.25;;
35990;SDS011;22064;42.672;23.282;2023-07-20T14:03:58;8.55;;;3.10;;
35990;SDS011;22064;42.672;23.282;2023-07-20T14:06:24;8.38;;;2.88;;
35990;SDS011;22064;42.672;23.282;2023-07-20T14:08:50;8.05;;;2.67;;
35990;SDS011;22064;42.672;23.282;2023-07-20T14:11:16;8.20;;;2.90;;
35990;SDS011;22064;42.672;23.282;2023-07-20T14:13:42;11.45;;;3.00;;
35990;SDS011;22064;42.672;23.282;2023-07-20T14:16:08;7.63;;;3.00;;
35990;SDS011;22064;42.672;23.282;2023-07-20T14:18:34;7.15;;;3.13;;
35990;SDS011;22064;42.672;23.282;2023-07-20T14:21:00;8.90;;;2.95;;
35990;SDS011;22064;42.672;23.282;2023-07-20T14:23:28;10.75;;;3.10;;
35990;SDS011;22064;42.672;23.282;2023-07-20T14:25:54;11.32;;;2.85;;
35990;SDS011;22064;42.672;23.282;2023-07-20T14:28:20;11.18;;;3.03;;
35990;SDS011;22064;42.672;23.282;2023-07-20T14:30:46;13.50;;;3.65;;
35990;SDS011;22064;42.672;23.282;2023-07-20T14:33:12;9.63;;;3.17;;
35990;SDS011;22064;42.672;23.282;2023-07-20T14:35:38;9.48;;;3.38;;
35990;SDS011;22064;42.672;23.282;2023-07-20T14:38:04;11.57;;;3.40;;
35990;SDS011;22064;42.672;23.282;2023-07-20T14:40:30;9.63;;;2.92;;
35990;SDS011;22064;42.672;23.282;2023-07-20T14:42:56;9.07;;;3.17;;
35990;SDS011;22064;42.672;23.282;2023-07-20T14:45:22;7.28;;;2.92;;
35990;SDS011;22064;42.672;23.282;2023-07-20T14:47:48;12.80;;;3.22;;